createdAt,value
2019-02-23T00:02:23.011Z,89.58
2019-02-23T00:07:28.254Z,90.29
2019-02-23T00:12:33.855Z,90.25
2019-02-23T00:17:39.989Z,90.22
2019-02-23T00:22:45.209Z,90.54
2019-02-23T00:27:50.660Z,90.51
2019-02-23T00:32:55.849Z,91.00
2019-02-23T00:38:01.157Z,90.84
2019-02-23T00:43:06.686Z,90.57
2019-02-23T00:48:12.266Z,90.42
2019-02-23T00:53:17.448Z,90.52
2019-02-23T00:58:22.652Z,90.13
2019-02-23T01:03:27.843Z,89.98
2019-02-23T01:08:33.087Z,90.76
2019-02-23T01:13:38.283Z,90.89
2019-02-23T01:18:43.468Z,91.26
2019-02-23T01:23:48.678Z,91.06
2019-02-23T01:28:54.260Z,90.92
2019-02-23T01:33:59.449Z,90.77
2019-02-23T01:39:06.139Z,90.49
2019-02-23T01:44:11.842Z,89.81
2019-02-23T01:49:17.355Z,89.41
2019-02-23T01:54:23.623Z,88.39
2019-02-23T01:59:28.813Z,87.76
2019-02-23T02:04:38.710Z,88.00
2019-02-23T02:09:47.919Z,88.41
2019-02-23T02:14:53.734Z,88.63
2019-02-23T02:20:10.434Z,88.78
2019-02-23T02:25:08.847Z,88.77
2019-02-23T02:30:14.762Z,89.26
2019-02-23T02:35:20.285Z,89.86
2019-02-23T02:40:25.487Z,90.39
2019-02-23T02:45:30.687Z,90.68
2019-02-23T02:50:35.894Z,90.17
2019-02-23T02:55:42.163Z,91.00
2019-02-23T03:00:47.345Z,91.51
2019-02-23T03:05:52.884Z,91.41
2019-02-23T03:10:59.586Z,91.11
2019-02-23T03:16:04.719Z,91.11
2019-02-23T03:21:10.039Z,91.58
2019-02-23T03:26:15.223Z,91.79
2019-02-23T03:31:20.500Z,92.38
2019-02-23T03:36:25.813Z,92.48
2019-02-23T03:41:31.027Z,93.07
2019-02-23T03:46:36.910Z,93.30
2019-02-23T03:51:42.232Z,93.19
2019-02-23T03:56:47.418Z,93.31
2019-02-23T04:01:52.603Z,93.00
2019-02-23T04:06:57.800Z,93.42
2019-02-23T04:12:03.259Z,93.21
2019-02-23T04:17:08.493Z,93.08
2019-02-23T04:22:15.940Z,92.88
2019-02-23T04:27:21.133Z,93.10
2019-02-23T04:32:27.295Z,93.22
2019-02-23T04:37:32.483Z,93.32
2019-02-23T04:42:37.803Z,93.52
2019-02-23T04:47:43.469Z,93.50
2019-02-23T04:52:49.068Z,93.37
2019-02-23T04:57:54.684Z,93.35
2019-02-23T05:02:59.882Z,92.97
2019-02-23T05:08:05.079Z,92.91
2019-02-23T05:13:10.329Z,93.04
2019-02-23T05:18:15.576Z,92.76
2019-02-23T05:23:21.229Z,92.40
2019-02-23T05:28:26.812Z,92.40
2019-02-23T05:33:32.214Z,92.35
2019-02-23T05:38:37.524Z,92.28
2019-02-23T05:43:42.783Z,92.19
2019-02-23T05:48:48.151Z,92.08
2019-02-23T05:53:53.409Z,91.95
2019-02-23T05:59:00.126Z,91.65
2019-02-23T06:04:05.674Z,91.77
2019-02-23T06:09:10.829Z,91.46
2019-02-23T06:14:16.711Z,90.86
2019-02-23T06:19:22.520Z,90.64
2019-02-23T06:24:27.807Z,89.62
2019-02-23T06:29:33.766Z,88.36
2019-02-23T06:34:38.961Z,88.59
2019-02-23T06:39:44.392Z,88.50
2019-02-23T06:44:49.575Z,88.36
2019-02-23T06:49:55.171Z,87.79
2019-02-23T06:55:01.313Z,87.52
2019-02-23T07:00:10.630Z,87.40
2019-02-23T07:05:15.892Z,86.90
2019-02-23T07:10:21.437Z,86.73
2019-02-23T07:15:26.627Z,86.44
2019-02-23T07:20:31.951Z,86.05
2019-02-23T07:25:37.888Z,85.38
2019-02-23T07:30:44.503Z,85.00
2019-02-23T07:35:50.341Z,85.05
2019-02-23T07:40:55.866Z,85.77
2019-02-23T07:46:01.337Z,85.51
2019-02-23T07:51:06.812Z,84.90
2019-02-23T07:56:12.346Z,84.34
2019-02-23T08:01:18.837Z,83.99
2019-02-23T08:06:24.818Z,83.23
2019-02-23T08:11:31.071Z,82.82
2019-02-23T08:16:40.463Z,82.57
2019-02-23T08:21:47.057Z,82.04
2019-02-23T08:26:52.366Z,82.32
2019-02-23T08:31:58.016Z,82.33
2019-02-23T08:37:03.440Z,80.94
2019-02-23T08:42:08.630Z,81.24
2019-02-23T08:47:13.811Z,79.26
2019-02-23T08:52:20.049Z,79.56
2019-02-23T08:57:25.230Z,80.14
2019-02-23T09:02:30.404Z,79.32
2019-02-23T09:07:36.272Z,78.53
2019-02-23T09:12:41.978Z,78.60
2019-02-23T09:17:47.168Z,77.46
2019-02-23T09:23:00.247Z,78.03
2019-02-23T09:28:00.307Z,74.65
2019-02-23T09:33:05.486Z,75.20
2019-02-23T09:38:10.662Z,73.45
2019-02-23T09:43:17.987Z,71.66
2019-02-23T09:48:23.114Z,72.22
2019-02-23T09:53:28.295Z,70.08
2019-02-23T09:58:33.492Z,70.22
2019-02-23T10:03:38.663Z,69.05
2019-02-23T10:08:44.166Z,65.61
2019-02-23T10:13:49.621Z,65.10
2019-02-23T10:18:55.989Z,63.35
2019-02-23T10:24:01.164Z,64.04
2019-02-23T10:29:06.903Z,62.45
2019-02-23T10:34:13.181Z,62.39
2019-02-23T10:39:18.722Z,61.48
2019-02-23T10:44:23.838Z,57.00
2019-02-23T10:49:29.353Z,56.86
2019-02-23T10:54:34.916Z,54.98
2019-02-23T10:59:40.085Z,54.42
2019-02-23T11:04:46.276Z,50.69
2019-02-23T11:09:51.445Z,50.00
2019-02-23T11:14:57.919Z,52.54
2019-02-23T11:20:03.103Z,53.09
2019-02-23T11:25:09.038Z,50.70
2019-02-23T11:30:14.541Z,47.34
2019-02-23T11:35:20.591Z,49.64
2019-02-23T11:40:26.119Z,47.35
2019-02-23T11:45:31.296Z,48.95
2019-02-23T11:50:40.589Z,46.56
2019-02-23T11:55:45.786Z,46.26
2019-02-23T12:00:51.809Z,48.37
2019-02-23T12:05:56.904Z,48.37
2019-02-23T12:11:03.496Z,49.93
2019-02-23T12:16:08.762Z,42.79
2019-02-23T12:21:14.025Z,45.30
2019-02-23T12:26:19.638Z,43.79
2019-02-23T12:31:25.204Z,44.24
2019-02-23T12:36:30.905Z,43.65
2019-02-23T12:41:36.169Z,38.46
2019-02-23T12:46:43.133Z,42.29
2019-02-23T12:51:48.343Z,38.75
2019-02-23T12:56:53.548Z,37.16
2019-02-23T13:01:59.035Z,38.71
2019-02-23T13:07:05.690Z,39.05
2019-02-23T13:12:38.345Z,39.82
2019-02-23T13:18:20.136Z,37.52
2019-02-23T13:23:51.518Z,39.01
2019-02-23T13:29:24.085Z,37.40
2019-02-23T13:34:54.977Z,37.61
2019-02-23T13:40:44.191Z,34.98
2019-02-23T13:46:27.195Z,35.16
2019-02-23T13:52:19.021Z,33.57
2019-02-23T13:57:48.612Z,32.32
2019-02-23T14:03:29.955Z,34.31
2019-02-23T14:09:25.079Z,31.72
2019-02-23T14:15:18.006Z,34.96
2019-02-23T14:21:00.281Z,33.80
2019-02-23T14:26:51.572Z,33.30
2019-02-23T14:32:37.790Z,34.46
2019-02-23T14:38:05.428Z,33.91
2019-02-23T14:43:34.192Z,34.37
2019-02-23T14:49:38.700Z,32.45
2019-02-23T14:55:00.663Z,32.09
2019-02-23T15:00:50.395Z,33.99
2019-02-23T15:06:13.848Z,33.24
2019-02-23T15:11:55.505Z,35.17
2019-02-23T15:17:49.025Z,35.32
2019-02-23T15:23:10.967Z,34.71
2019-02-23T15:28:49.252Z,35.87
2019-02-23T15:34:44.895Z,35.23
2019-02-23T15:40:25.302Z,36.60
2019-02-23T15:46:06.065Z,36.91
2019-02-23T15:51:11.342Z,37.53
2019-02-23T15:56:17.023Z,39.65
2019-02-23T16:01:22.255Z,41.38
2019-02-23T16:06:27.517Z,41.96
2019-02-23T16:11:32.972Z,42.06
2019-02-23T16:16:38.231Z,44.07
2019-02-23T16:21:43.582Z,43.57
2019-02-23T16:26:48.769Z,43.96
2019-02-23T16:32:00.169Z,43.37
2019-02-23T16:37:05.368Z,44.68
2019-02-23T16:42:10.802Z,45.29
2019-02-23T16:47:17.120Z,43.44
2019-02-23T16:52:22.734Z,43.14
2019-02-23T16:57:28.022Z,41.96
2019-02-23T17:02:35.923Z,42.16
2019-02-23T17:07:40.201Z,42.14
2019-02-23T17:12:45.393Z,43.11
2019-02-23T17:17:50.604Z,44.76
2019-02-23T17:22:55.794Z,44.80
2019-02-23T17:28:02.392Z,47.80
2019-02-23T17:33:09.905Z,51.97
2019-02-23T17:38:16.427Z,53.88
2019-02-23T17:43:21.897Z,54.13
2019-02-23T17:48:27.114Z,55.09
2019-02-23T17:53:32.678Z,55.64
2019-02-23T17:58:38.025Z,57.93
2019-02-23T18:03:43.554Z,59.58
2019-02-23T18:08:49.069Z,59.92
2019-02-23T18:13:56.525Z,60.55
2019-02-23T18:19:02.375Z,60.99
2019-02-23T18:24:07.978Z,61.28
2019-02-23T18:29:13.269Z,62.16
2019-02-23T18:34:19.512Z,62.06
2019-02-23T18:39:25.052Z,61.89
2019-02-23T18:44:30.373Z,63.03
2019-02-23T18:49:35.568Z,62.42
2019-02-23T18:54:40.971Z,62.39
2019-02-23T18:59:47.228Z,62.50
2019-02-23T19:04:53.989Z,63.67
2019-02-23T19:09:59.587Z,63.96
2019-02-23T19:15:06.136Z,64.58
2019-02-23T19:20:12.378Z,63.98
2019-02-23T19:25:17.934Z,64.12
2019-02-23T19:30:24.989Z,65.13
2019-02-23T19:35:30.238Z,65.13
2019-02-23T19:40:35.423Z,64.75
2019-02-23T19:45:41.231Z,63.18
2019-02-23T19:50:49.882Z,63.00
2019-02-23T19:55:55.081Z,62.78
2019-02-23T20:01:01.013Z,62.46
2019-02-23T20:06:07.640Z,61.94
2019-02-23T20:11:13.147Z,61.97
2019-02-23T20:16:18.351Z,61.85
2019-02-23T20:21:23.618Z,61.22
2019-02-23T20:26:28.845Z,61.23
2019-02-23T20:31:34.052Z,62.23
2019-02-23T20:36:39.321Z,62.67
2019-02-23T20:41:44.943Z,62.90
2019-02-23T20:46:50.142Z,62.68
2019-02-23T20:51:56.266Z,62.59
2019-02-23T20:57:05.311Z,62.40
2019-02-23T21:02:09.145Z,62.61
2019-02-23T21:07:14.367Z,57.94
2019-02-23T21:12:20.036Z,56.84
2019-02-23T21:17:25.688Z,56.02
2019-02-23T21:22:31.226Z,56.70
2019-02-23T21:27:38.633Z,55.97
2019-02-23T21:32:44.237Z,55.97
2019-02-23T21:37:49.903Z,55.90
2019-02-23T21:42:55.162Z,56.67
2019-02-23T21:48:00.803Z,57.39
2019-02-23T21:53:06.564Z,56.63
2019-02-23T21:58:11.856Z,56.60
2019-02-23T22:03:17.126Z,56.53
2019-02-23T22:08:22.673Z,55.01
2019-02-23T22:13:28.505Z,53.62
2019-02-23T22:18:34.060Z,52.89
2019-02-23T22:23:39.837Z,51.73
2019-02-23T22:28:45.109Z,50.73
2019-02-23T22:33:50.640Z,50.84
2019-02-23T22:38:55.942Z,51.54
2019-02-23T22:44:02.342Z,51.10
2019-02-23T22:49:08.323Z,52.25
2019-02-23T22:54:13.534Z,53.08
2019-02-23T22:59:19.514Z,51.80
2019-02-23T23:04:24.821Z,52.61
2019-02-23T23:09:30.039Z,52.45
2019-02-23T23:14:35.249Z,52.38
2019-02-23T23:19:40.554Z,52.10
2019-02-23T23:24:45.788Z,51.59
2019-02-23T23:29:51.693Z,51.62
2019-02-23T23:34:56.913Z,51.74
2019-02-23T23:40:02.098Z,51.55
2019-02-23T23:45:08.363Z,51.49
2019-02-23T23:50:14.641Z,52.36
2019-02-23T23:55:19.842Z,53.64
